W5CGC Weather Reports


Display with metric or nautical units.
time (UTC)temp
F
wind
direction
speed
MPH
gust
MPH
rain 1hr
in
rain 24hr
in
rain mn
in
humidity
%
barometer
mb
20170523142554 67 56 0.0 5.0 0.00 0.00 0.00 79 1012.7
20170523141456 67 235 0.0 3.0 0.00 0.00 0.00 80 1012.8
20170523135552 67 41 0.0 1.0 0.00 0.00 0.00 80 1012.5
20170523134053 67 68 0.0 2.0 0.00 0.00 0.00 80 1012.3
20170523132550 67 314 0.0 1.0 0.00 0.00 0.00 80 1012.1
20170523131449 66 73 0.0 0.0 0.00 0.00 0.00 81 1012.0
20170523125545 66 73 0.0 0.0 0.00 0.01 0.00 81 1011.9
20170523124044 65 73 0.0 0.0 0.00 0.01 0.00 81 1011.9
20170523122548 64 73 0.0 0.0 0.00 0.01 0.00 82 1011.9
20170523121445 64 74 0.0 0.0 0.00 0.01 0.00 81 1011.3
20170523115457 64 73 0.0 0.0 0.00 0.01 0.00 81 1011.2
20170523113957 64 73 0.0 0.0 0.00 0.01 0.00 81 1011.1
20170523112455 64 74 0.0 1.0 0.00 0.01 0.00 81 1010.9
20170523111455 65 113 0.0 1.0 0.00 0.01 0.00 81 1010.8
20170523105542 65 113 0.0 1.0 0.00 0.01 0.00 81 1010.7
20170523104040 65 234 0.0 1.0 0.00 0.01 0.00 81 1010.8
20170523102542 65 233 0.0 0.0 0.00 0.01 0.00 81 1010.8
20170523101443 65 233 0.0 1.0 0.00 0.01 0.00 80 1011.0
20170523095545 65 233 0.0 1.0 0.00 0.01 0.00 80 1011.0
20170523094043 65 144 0.0 1.0 0.00 0.01 0.00 80 1011.0
20170523092543 65 232 0.0 3.0 0.00 0.01 0.00 80 1010.6
20170523091441 65 224 0.0 2.0 0.00 0.01 0.00 80 1011.4
20170523085537 65 242 0.0 4.0 0.00 0.04 0.00 80 1011.5
20170523084043 65 211 0.0 3.0 0.00 0.04 0.00 80 1012.2
20170523082534 65 228 1.0 3.0 0.00 0.04 0.00 80 1011.7
20170523081439 65 203 0.0 2.0 0.00 0.04 0.00 80 1011.5
20170523075531 65 153 0.0 1.0 0.00 0.12 0.00 80 1011.5
20170523074052 66 218 0.0 4.0 0.00 0.12 0.00 80 1011.5
20170523072535 66 212 1.0 4.0 0.00 0.12 0.00 80 1011.4
20170523071428 66 208 2.0 5.0 0.00 0.12 0.00 80 1012.0
20170523065527 66 215 3.0 6.0 0.00 0.20 0.00 79 1012.2
20170523064025 67 119 0.0 2.0 0.00 0.20 0.00 79 1012.6
20170523062525 66 296 2.0 5.0 0.00 0.20 0.00 80 1013.9
20170523061422 66 235 0.0 0.0 0.00 0.20 0.00 79 1013.6
20170523055529 66 235 0.0 0.0 0.00 0.22 0.00 79 1013.2
20170523054018 66 236 0.0 2.0 0.00 0.22 0.00 79 1013.0
20170523052520 66 252 0.0 4.0 0.00 0.22 0.00 79 1012.9
20170523051418 66 229 0.0 1.0 0.00 0.22 0.00 78 1012.6
20170523045511 67 229 0.0 1.0 0.00 0.22 0.22 77 1012.7
20170523044011 67 152 0.0 3.0 0.00 0.22 0.22 77 1012.9
20170523042517 68 176 0.0 3.0 0.00 0.22 0.22 76 1012.8
20170523041412 69 139 1.0 8.0 0.00 0.22 0.22 76 1012.8
20170523035510 69 212 2.0 6.0 0.00 0.22 0.22 76 1012.8
20170523034015 69 222 2.0 7.0 0.00 0.22 0.22 75 1012.6
20170523032509 70 233 0.0 3.0 0.00 0.22 0.22 75 1012.9
20170523031419 70 198 1.0 5.0 0.00 0.22 0.22 75 1012.5
20170523025512 70 119 0.0 3.0 0.00 0.22 0.22 75 1012.6
20170523024020 70 214 0.0 3.0 0.00 0.22 0.22 75 1012.5
20170523022516 70 235 1.0 2.0 0.00 0.22 0.22 75 1012.6
20170523021415 71 136 0.0 0.0 0.00 0.22 0.22 75 1012.7
20170523015514 71 136 0.0 0.0 0.00 0.22 0.22 74 1012.5
20170523014011 71 136 0.0 0.0 0.00 0.22 0.22 75 1012.1
20170523012513 71 136 0.0 0.0 0.00 0.22 0.22 74 1012.1
20170523011414 73 137 0.0 0.0 0.00 0.22 0.22 73 1011.8
20170523005506 73 136 0.0 0.0 0.00 0.22 0.22 71 1012.1
20170523004009 74 136 0.0 0.0 0.00 0.22 0.22 71 1012.1
20170523002505 74 136 0.0 1.0 0.00 0.22 0.22 70 1012.1
20170523001413 75 136 0.0 1.0 0.00 0.22 0.22 70 1012.2
20170522235510 75 170 0.0 1.0 0.00 0.22 0.22 69 1012.3
20170522234006 76 115 0.0 2.0 0.00 0.22 0.22 66 1012.2
20170522232508 77 89 0.0 2.0 0.00 0.22 0.22 66 1012.2
20170522231403 77 70 0.0 1.0 0.00 0.22 0.22 66 1012.4
20170522225501 77 70 0.0 2.0 0.00 0.22 0.22 64 1012.6
20170522223959 77 94 0.0 2.0 0.00 0.22 0.22 66 1012.7
20170522222506 78 353 0.0 5.0 0.00 0.22 0.22 64 1012.7
20170522221357 79 111 0.0 2.0 0.00 0.22 0.22 62 1012.8
20170522215459 79 41 0.0 1.0 0.00 0.22 0.22 65 1013.1
20170522213956 79 38 0.0 2.0 0.00 0.22 0.22 63 1013.3
20170522212452 79 49 0.0 3.0 0.00 0.22 0.22 62 1013.5
20170522211349 81 75 1.0 4.0 0.00 0.22 0.22 59 1013.6
20170522205448 81 125 0.0 1.0 0.00 0.22 0.22 60 1013.7
20170522203948 80 75 1.0 3.0 0.00 0.22 0.22 57 1013.9
20170522202447 80 208 0.0 5.0 0.00 0.22 0.22 59 1014.0
20170522201343 80 108 0.0 4.0 0.00 0.22 0.22 60 1014.3
20170522195445 80 139 0.0 3.0 0.00 0.22 0.22 59 1014.6
20170522193939 80 70 1.0 4.0 0.00 0.22 0.22 60 1014.8
20170522192437 79 100 0.0 4.0 0.00 0.22 0.22 61 1015.0
20170522191334 78 75 1.0 3.0 0.00 0.22 0.22 63 1015.1
20170522185431 79 91 1.0 2.0 0.00 0.22 0.22 63 1015.5
20170522183928 77 131 2.0 4.0 0.00 0.22 0.22 64 1015.5
20170522182425 77 111 1.0 4.0 0.00 0.22 0.22 63 1015.8
20170522181326 77 90 0.0 3.0 0.00 0.22 0.22 63 1016.4
20170522175422 77 27 0.0 2.0 0.00 0.22 0.22 64 1016.9
20170522173922 77 131 0.0 6.0 0.00 0.22 0.22 64 1017.0
20170522172434 75 218 2.0 5.0 0.00 0.22 0.22 66 1017.2
20170522171316 75 131 0.0 3.0 0.00 0.22 0.22 65 1017.5
20170522165415 74 85 1.0 4.0 0.00 0.22 0.22 67 1017.5
20170522163917 74 159 0.0 2.0 0.00 0.22 0.22 67 1017.8
20170522162416 74 139 1.0 2.0 0.00 0.22 0.22 67 1018.2
20170522161305 73 116 1.0 3.0 0.00 0.22 0.22 70 1018.2
20170522155408 72 105 1.0 0.0 0.00 0.00 0.22 73 1018.3
20170522153907 71 63 0.0 4.0 0.00 0.22 0.22 74 1018.3
20170522152410 70 103 2.0 5.0 0.00 0.22 0.22 74 1018.3
20170522151303 70 60 0.0 2.0 0.00 0.22 0.22 75 1018.6
20170522145402 67 69 0.0 1.0 0.00 0.22 0.22 76 1018.7
20170522143913 66 104 0.0 1.0 0.00 0.22 0.22 77 1018.5